»·PEaware :: N214TB KVNY-KVNY

N214TB :: KVNY-KVNY

FLIGHT INFORMATION

Flight Status: Arrived
Operator: Privately registered:
United States
More flights under this callsign
Pilot: James W. (17580)
Aircraft: CESSNA 172 SKYHAWK
(C172)
More flights by this aircraft type
Origin: KVNY Van Nuys
United States
Destination: KVNY Van Nuys
United States
More flights between these airports :: More routes between these airports
Route:
File this flight plan on PilotEdge
Remarks:
Altitude:
(Current/Filed)
0ft
Speed:
(Current/Filed)
0kts
Departed: 29-Jan-21 06:12 PM
Arrived: 29-Jan-21 07:43 PM
Distance/Time
Traveled:
1nm/1:31
Distance/Time
To Go:
Arrived

Flight Plot

Page will automatically refresh every two minutes.


Map Options




Map Legend


Flown Route
Filed Route
Departure Airport
Arrival Airport
Navaid (VOR, NDB)
Fix

Horizontal Profiles

Position Reports

Time Latitude Longitude Heading Altitude Ground
Speed
29-Jan-21 18:08 34.217874 -118.492874 119 802ft 0kts
29-Jan-21 18:09 34.218293 -118.492374 355 802ft 10kts
29-Jan-21 18:10 34.218713 -118.492093 70 803ft 0kts
29-Jan-21 18:11 34.211042 -118.490563 171 859ft 79kts
29-Jan-21 18:12 34.187703 -118.488951 177 1596ft 83kts
29-Jan-21 18:13 34.192672 -118.508275 345 1920ft 94kts
29-Jan-21 18:14 34.220297 -118.519103 353 1662ft 114kts
29-Jan-21 18:15 34.232045 -118.498022 101 1217ft 98kts
29-Jan-21 18:16 34.210200 -118.490441 174 788ft 58kts
29-Jan-21 18:17 34.186876 -118.488711 179 1267ft 92kts
29-Jan-21 18:18 34.189863 -118.508930 357 1815ft 109kts
29-Jan-21 18:19 34.223048 -118.508728 354 2003ft 117kts
29-Jan-21 18:20 34.255579 -118.512680 355 1907ft 106kts
29-Jan-21 18:21 34.255632 -118.495381 172 1622ft 135kts
29-Jan-21 18:22 34.224879 -118.491850 175 1065ft 89kts
29-Jan-21 18:23 34.205749 -118.489967 174 796ft 80kts
29-Jan-21 18:24 34.183491 -118.493268 265 1561ft 84kts
29-Jan-21 18:25 34.200278 -118.508099 1 1774ft 117kts
29-Jan-21 18:26 34.231829 -118.507886 359 1624ft 110kts
29-Jan-21 18:27 34.222090 -118.491624 179 933ft 93kts
29-Jan-21 18:28 34.200326 -118.489455 176 796ft 98kts
29-Jan-21 18:29 34.181974 -118.500280 271 1532ft 95kts
29-Jan-21 18:30 34.206242 -118.507296 358 1812ft 103kts
29-Jan-21 18:31 34.234159 -118.506053 357 1765ft 102kts
29-Jan-21 18:32 34.229648 -118.492360 178 1201ft 84kts
29-Jan-21 18:33 34.209872 -118.490416 174 787ft 44kts
29-Jan-21 18:34 34.187306 -118.488778 180 1252ft 93kts
29-Jan-21 18:35 34.193707 -118.507238 356 1768ft 109kts
29-Jan-21 18:36 34.225014 -118.507481 355 1910ft 105kts
29-Jan-21 18:38 34.224732 -118.491768 179 1056ft 101kts
29-Jan-21 18:39 34.204312 -118.489827 176 801ft 86kts
29-Jan-21 18:40 34.184057 -118.495689 275 1529ft 90kts
29-Jan-21 18:41 34.185476 -118.526913 273 2163ft 99kts
29-Jan-21 18:42 34.190754 -118.560480 312 2517ft 115kts
29-Jan-21 18:43 34.221665 -118.577136 332 2546ft 123kts
29-Jan-21 18:44 34.251611 -118.596942 330 2623ft 121kts
29-Jan-21 18:45 34.268724 -118.628640 272 2522ft 126kts
29-Jan-21 18:46 34.276182 -118.668645 299 2595ft 123kts
29-Jan-21 18:47 34.289012 -118.702852 276 2918ft 121kts
29-Jan-21 18:48 34.290015 -118.743067 268 3095ft 112kts
29-Jan-21 18:49 34.287330 -118.780903 245 3276ft 117kts
29-Jan-21 18:50 34.265408 -118.810751 218 3264ft 129kts
29-Jan-21 18:50 34.244002 -118.834988 227 3243ft 116kts
29-Jan-21 18:52 34.210194 -118.856124 207 3373ft 127kts
29-Jan-21 18:52 34.182636 -118.863865 164 3475ft 123kts
29-Jan-21 18:54 34.154140 -118.827221 126 3433ft 124kts
29-Jan-21 18:54 34.145063 -118.793857 99 3488ft 129kts
29-Jan-21 18:56 34.135212 -118.742008 101 3152ft 137kts
29-Jan-21 18:56 34.138136 -118.707121 75 3426ft 121kts
29-Jan-21 18:57 34.162047 -118.686587 356 3675ft 111kts
29-Jan-21 18:58 34.184354 -118.690492 334 3598ft 130kts
29-Jan-21 18:59 34.184354 -118.690492 334 3598ft 130kts
29-Jan-21 19:00 34.184354 -118.690492 334 3598ft 130kts
29-Jan-21 19:01 34.184354 -118.690492 334 3598ft 130kts
29-Jan-21 19:02 34.184354 -118.690492 334 3598ft 130kts
29-Jan-21 19:03 34.184354 -118.690492 334 3598ft 130kts
29-Jan-21 19:04 34.184354 -118.690492 334 3598ft 130kts
29-Jan-21 19:05 34.207481 -118.701358 337 3570ft 123kts
29-Jan-21 19:06 34.239903 -118.705218 321 3857ft 117kts
29-Jan-21 19:07 34.246472 -118.746691 282 3547ft 125kts
29-Jan-21 19:08 34.253284 -118.786723 278 3472ft 110kts
29-Jan-21 19:09 34.259095 -118.818591 296 3471ft 99kts
29-Jan-21 19:10 34.267715 -118.797900 95 3507ft 101kts
29-Jan-21 19:11 34.265199 -118.779696 84 3523ft 107kts
29-Jan-21 19:12 34.263425 -118.764687 113 3254ft 115kts
29-Jan-21 19:13 34.257376 -118.740206 294 3455ft 97kts
29-Jan-21 19:14 34.264943 -118.721524 247 3451ft 98kts
29-Jan-21 19:15 34.255752 -118.693222 149 3608ft 97kts
29-Jan-21 19:16 34.264297 -118.692616 293 3647ft 104kts
29-Jan-21 19:17 34.265846 -118.685895 185 3085ft 130kts
29-Jan-21 19:18 34.254216 -118.708309 278 3139ft 96kts
29-Jan-21 19:19 34.254642 -118.741245 260 3259ft 94kts
29-Jan-21 19:20 34.236547 -118.753835 172 3018ft 108kts
29-Jan-21 19:21 34.222066 -118.772633 277 3088ft 99kts
29-Jan-21 19:22 34.236943 -118.794133 15 3148ft 112kts
29-Jan-21 19:23 34.261393 -118.779135 78 3374ft 107kts
29-Jan-21 19:24 34.272970 -118.755795 358 3569ft 97kts
29-Jan-21 19:25 34.281410 -118.783899 274 3615ft 92kts
29-Jan-21 19:26 34.273656 -118.791645 94 3560ft 105kts
29-Jan-21 19:27 34.270773 -118.757520 98 3459ft 85kts
29-Jan-21 19:28 34.266199 -118.728198 99 3491ft 82kts
29-Jan-21 19:29 34.263698 -118.702919 100 3428ft 73kts
29-Jan-21 19:30 34.259952 -118.680040 91 3442ft 63kts
29-Jan-21 19:31 34.266835 -118.685139 271 3440ft 47kts
29-Jan-21 19:32 34.267226 -118.699820 266 3401ft 26kts
29-Jan-21 19:33 34.276966 -118.678308 89 3023ft 105kts
29-Jan-21 19:34 34.276012 -118.701701 316 3041ft 88kts
29-Jan-21 19:35 34.276438 -118.676272 114 2912ft 108kts
29-Jan-21 19:36 34.271849 -118.638180 95 2959ft 132kts
29-Jan-21 19:37 34.267931 -118.591529 98 2406ft 138kts
29-Jan-21 19:38 34.262655 -118.550940 96 1988ft 119kts
29-Jan-21 19:39 34.258237 -118.511504 103 1830ft 121kts
29-Jan-21 19:40 34.233261 -118.492760 176 1287ft 94kts
29-Jan-21 19:41 34.211167 -118.490544 174 788ft 43kts
29-Jan-21 19:42 34.211718 -118.491739 353 789ft 25kts
29-Jan-21 19:43 34.217005 -118.494273 280 799ft 14kts
29-Jan-21 19:44 34.216792 -118.495499 199 801ft 0kts
29-Jan-21 19:45 34.216792 -118.495499 199 801ft 0kts

Navigation Log

Ident Type
Flight plan parsing failed, navigation log unavailable